This is the latest recevied weather packets stored in our database for station/object KQ4DLB-13. If no packets are shown the sender has not sent any weather packets the latest 10 day(s).
| Time | Temp. | Humidity | Pressure | Rain* | Wind** | Luminosity | Snow |
|---|---|---|---|---|---|---|---|
| 1777567502 | 15.56° C | 45% | 992.6 hPa | 0 mm | - | 690 W/m² | - |
| 1777567202 | 15.56° C | 43% | 992.5 hPa | 0 mm | - | 709 W/m² | - |
| 1777566902 | 15.56° C | 45% | 992.4 hPa | 0 mm | - | 656 W/m² | - |
| 1777566602 | 15.56° C | 44% | 992.5 hPa | 0 mm | - | 673 W/m² | - |
| 1777566302 | 16.11° C | 43% | 992.6 hPa | 0 mm | - | 646 W/m² | - |
| 1777566002 | 16.11° C | 44% | 992.7 hPa | 0 mm | - | 700 W/m² | - |
| 1777565702 | 15.56° C | 46% | 992.7 hPa | 0 mm | - | 742 W/m² | - |
| 1777565402 | 15.56° C | 45% | 992.6 hPa | 0 mm | - | 637 W/m² | - |
| 1777565102 | 15.56° C | 45% | 992.7 hPa | 0 mm | - | 821 W/m² | - |
| 1777564802 | 16.11° C | 44% | 992.7 hPa | 0 mm | - | 846 W/m² | - |
| 1777564503 | 16.11° C | 47% | 992.9 hPa | 0 mm | - | 818 W/m² | - |
| 1777564202 | 15.56° C | 45% | 992.9 hPa | 0 mm | - | 842 W/m² | - |
| 1777563902 | 15.56° C | 45% | 992.9 hPa | 0 mm | - | 831 W/m² | - |
| 1777563602 | 15.56° C | 47% | 992.9 hPa | 0 mm | - | 819 W/m² | - |
| 1777563302 | 15° C | 47% | 992.8 hPa | 0 mm | - | 791 W/m² | - |
| 1777563003 | 15° C | 46% | 992.8 hPa | 0 mm | - | 746 W/m² | - |
| 1777562702 | 15° C | 47% | 992.7 hPa | 0 mm | - | 713 W/m² | - |
| 1777562402 | 15° C | 49% | 992.7 hPa | 0 mm | - | 678 W/m² | - |
| 1777562102 | 15° C | 48% | 992.6 hPa | 0 mm | - | 662 W/m² | - |
| 1777561802 | 15° C | 48% | 992.7 hPa | 0 mm | - | 691 W/m² | - |
| 1777561502 | 15° C | 47% | 992.8 hPa | 0 mm | - | 693 W/m² | - |
| 1777561202 | 14.44° C | 48% | 992.8 hPa | 0 mm | - | 693 W/m² | - |
| 1777560902 | 14.44° C | 48% | 992.8 hPa | 0 mm | - | 665 W/m² | - |
| 1777560602 | 14.44° C | 48% | 992.6 hPa | 0 mm | - | 499 W/m² | - |
| 1777560302 | 14.44° C | 49% | 992.3 hPa | 0 mm | - | 201 W/m² | - |
* Rain latest hour (hover to see other rain measurements)
** Current wind speed in m/s (hover to see current wind gust speed)